createdAt,value
2023-07-19T00:00:02.271Z,11.77
2023-07-19T00:01:45.314Z,15.57
2023-07-19T00:03:16.787Z,11.35
2023-07-19T00:04:48.726Z,11.10
2023-07-19T00:06:20.393Z,10.45
2023-07-19T00:07:51.880Z,12.80
2023-07-19T00:09:23.407Z,10.88
2023-07-19T00:10:55.062Z,14.50
2023-07-19T00:12:26.679Z,13.00
2023-07-19T00:13:58.335Z,13.13
2023-07-19T00:15:31.358Z,12.82
2023-07-19T00:17:02.912Z,11.77
2023-07-19T00:18:34.564Z,11.43
2023-07-19T00:20:06.450Z,12.65
2023-07-19T00:21:37.926Z,10.45
2023-07-19T00:23:09.557Z,13.23
2023-07-19T00:24:41.187Z,14.40
2023-07-19T00:26:12.766Z,11.85
2023-07-19T00:27:44.734Z,11.45
2023-07-19T00:29:16.276Z,11.60
2023-07-19T00:30:47.856Z,11.80
2023-07-19T00:32:19.506Z,13.45
2023-07-19T00:34:04.630Z,11.32
2023-07-19T00:35:40.251Z,12.45
2023-07-19T00:37:11.723Z,11.05
2023-07-19T00:38:43.215Z,14.48
2023-07-19T00:40:14.805Z,12.55
2023-07-19T00:41:46.741Z,16.77
2023-07-19T00:43:20.635Z,11.43
2023-07-19T00:44:52.265Z,11.30
2023-07-19T00:46:24.291Z,11.43
2023-07-19T00:47:56.276Z,9.50
2023-07-19T00:49:28.098Z,12.02
2023-07-19T00:51:00.414Z,11.43
2023-07-19T00:52:31.939Z,12.70
2023-07-19T00:54:04.179Z,13.23
2023-07-19T00:55:35.746Z,10.93
2023-07-19T00:57:08.006Z,12.90
2023-07-19T00:58:39.910Z,8.95
2023-07-19T01:00:11.713Z,12.10
2023-07-19T01:01:45.423Z,11.02
2023-07-19T01:03:17.330Z,9.38
2023-07-19T01:04:48.953Z,10.63
2023-07-19T01:06:20.773Z,11.70
2023-07-19T01:07:54.147Z,11.40
2023-07-19T01:09:27.807Z,9.68
2023-07-19T01:11:00.149Z,11.95
2023-07-19T01:12:31.651Z,14.05
2023-07-19T01:14:03.166Z,12.75
2023-07-19T01:15:36.451Z,10.85
2023-07-19T01:17:08.164Z,10.65
2023-07-19T01:18:39.651Z,10.18
2023-07-19T01:20:11.360Z,14.13
2023-07-19T01:21:42.849Z,10.65
2023-07-19T01:23:14.423Z,10.20
2023-07-19T01:24:45.928Z,12.18
2023-07-19T01:26:17.641Z,11.80
2023-07-19T01:27:49.473Z,11.48
2023-07-19T01:29:22.546Z,13.13
2023-07-19T01:30:54.013Z,12.07
2023-07-19T01:32:27.480Z,11.77
2023-07-19T01:33:58.992Z,12.30
2023-07-19T01:35:30.523Z,12.45
2023-07-19T01:37:02.004Z,14.27
2023-07-19T01:38:33.502Z,11.43
2023-07-19T01:40:05.903Z,14.32
2023-07-19T01:41:37.432Z,9.32
2023-07-19T01:43:09.191Z,11.25
2023-07-19T01:44:40.699Z,9.48
2023-07-19T01:46:12.177Z,11.38
2023-07-19T01:47:44.716Z,12.18
2023-07-19T01:49:16.152Z,10.48
2023-07-19T01:50:48.455Z,12.77
2023-07-19T01:52:20.100Z,16.08
2023-07-19T01:53:51.673Z,19.02
2023-07-19T01:55:23.155Z,14.35
2023-07-19T01:56:54.634Z,13.38
2023-07-19T01:58:26.539Z,14.10
2023-07-19T01:59:58.103Z,13.10
2023-07-19T02:01:29.739Z,10.13
2023-07-19T02:03:02.812Z,12.48
2023-07-19T02:04:34.378Z,12.13
2023-07-19T02:06:08.131Z,13.35
2023-07-19T02:07:39.686Z,11.30
2023-07-19T02:09:11.199Z,16.73
2023-07-19T02:10:42.692Z,12.07
2023-07-19T02:12:15.700Z,12.57
2023-07-19T02:13:47.179Z,9.85
2023-07-19T02:15:18.760Z,12.02
2023-07-19T02:16:50.259Z,15.50
2023-07-19T02:18:22.320Z,10.55
2023-07-19T02:19:53.788Z,11.95
2023-07-19T02:21:25.357Z,13.15
2023-07-19T02:22:56.866Z,13.30
2023-07-19T02:24:28.379Z,9.60
2023-07-19T02:25:59.911Z,12.00
2023-07-19T02:27:31.947Z,9.07
2023-07-19T02:29:06.707Z,13.27
2023-07-19T02:30:42.092Z,10.65
2023-07-19T02:32:13.520Z,13.85
2023-07-19T02:33:45.033Z,13.48
2023-07-19T02:35:16.698Z,13.82
2023-07-19T02:36:49.516Z,14.77
2023-07-19T02:38:25.133Z,16.63
2023-07-19T02:39:56.828Z,11.07
2023-07-19T02:41:28.545Z,13.75
2023-07-19T02:43:00.023Z,11.30
2023-07-19T02:44:31.536Z,12.77
2023-07-19T02:46:03.035Z,10.68
2023-07-19T02:47:34.754Z,14.23
2023-07-19T02:49:06.409Z,12.63
2023-07-19T02:50:37.943Z,14.70
2023-07-19T02:52:12.241Z,14.88
2023-07-19T02:53:43.706Z,13.35
2023-07-19T02:55:15.217Z,13.35
2023-07-19T02:56:46.810Z,11.93
2023-07-19T02:58:18.477Z,13.35
2023-07-19T02:59:49.976Z,13.43
2023-07-19T03:01:21.862Z,11.90
2023-07-19T03:02:55.215Z,15.45
2023-07-19T03:04:27.173Z,12.30
2023-07-19T03:05:58.629Z,14.88
2023-07-19T03:07:30.086Z,11.13
2023-07-19T03:09:01.622Z,10.73
2023-07-19T03:10:33.242Z,13.77
2023-07-19T03:12:04.858Z,14.40
2023-07-19T03:13:36.865Z,13.68
2023-07-19T03:15:08.494Z,17.38
2023-07-19T03:16:40.155Z,16.40
2023-07-19T03:18:11.818Z,11.82
2023-07-19T03:19:46.628Z,10.05
2023-07-19T03:21:19.986Z,16.40
2023-07-19T03:22:51.641Z,11.93
2023-07-19T03:24:23.131Z,12.75
2023-07-19T03:25:58.247Z,11.32
2023-07-19T03:29:01.668Z,14.00
2023-07-19T03:30:33.998Z,15.25
2023-07-19T03:32:05.814Z,13.40
2023-07-19T03:33:38.378Z,14.15
2023-07-19T03:35:09.958Z,11.45
2023-07-19T03:36:41.869Z,12.40
2023-07-19T03:38:13.875Z,11.60
2023-07-19T03:39:45.353Z,17.15
2023-07-19T03:41:17.052Z,11.63
2023-07-19T03:42:49.309Z,15.48
2023-07-19T03:44:20.881Z,11.60
2023-07-19T03:45:52.411Z,13.23
2023-07-19T03:47:24.011Z,11.57
2023-07-19T03:48:55.677Z,13.85
2023-07-19T03:50:27.590Z,16.13
2023-07-19T03:51:59.141Z,13.73
2023-07-19T03:53:31.810Z,14.65
2023-07-19T03:55:04.313Z,13.25
2023-07-19T03:58:10.816Z,13.80
2023-07-19T03:59:42.256Z,14.95
2023-07-19T04:01:14.019Z,12.90
2023-07-19T04:02:45.474Z,12.82
2023-07-19T04:04:19.539Z,12.55
2023-07-19T04:05:51.461Z,9.90
2023-07-19T04:07:23.031Z,13.85
2023-07-19T04:08:55.959Z,13.75
2023-07-19T04:10:27.895Z,13.50
2023-07-19T04:12:01.614Z,13.02
2023-07-19T04:13:33.108Z,14.95
2023-07-19T04:15:04.812Z,13.43
2023-07-19T04:16:36.955Z,13.23
2023-07-19T04:18:09.870Z,18.83
2023-07-19T04:19:41.526Z,15.30
2023-07-19T04:21:13.089Z,12.65
2023-07-19T04:22:44.964Z,13.52
2023-07-19T04:24:17.228Z,13.50
2023-07-19T04:25:49.821Z,14.80
2023-07-19T04:27:21.342Z,14.15
2023-07-19T04:28:53.457Z,15.02
2023-07-19T04:30:25.209Z,12.65
2023-07-19T04:31:56.680Z,15.05
2023-07-19T04:33:29.064Z,12.90
2023-07-19T04:35:00.640Z,12.23
2023-07-19T04:36:32.114Z,13.30
2023-07-19T04:38:05.704Z,15.18
2023-07-19T04:39:37.267Z,11.80
2023-07-19T04:41:09.721Z,15.82
2023-07-19T04:42:41.251Z,16.13
2023-07-19T04:44:13.550Z,16.88
2023-07-19T04:45:45.229Z,17.77
2023-07-19T04:47:18.725Z,11.98
2023-07-19T04:48:50.212Z,13.45
2023-07-19T04:50:24.823Z,13.02
2023-07-19T04:51:57.665Z,14.55
2023-07-19T04:53:30.125Z,16.77
2023-07-19T04:55:03.748Z,16.88
2023-07-19T04:56:37.498Z,16.40
2023-07-19T04:58:08.938Z,11.27
2023-07-19T04:59:40.572Z,15.50
2023-07-19T05:01:12.722Z,14.85
2023-07-19T05:02:45.242Z,19.75
2023-07-19T05:04:16.801Z,14.63
2023-07-19T05:05:51.069Z,12.98
2023-07-19T05:07:23.596Z,14.85
2023-07-19T05:08:55.108Z,19.65
2023-07-19T05:10:26.852Z,14.20
2023-07-19T05:11:58.369Z,17.80
2023-07-19T05:13:30.182Z,12.35
2023-07-19T05:15:01.904Z,14.45
2023-07-19T05:16:36.520Z,13.32
2023-07-19T05:18:08.179Z,17.23
2023-07-19T05:19:39.830Z,14.93
2023-07-19T05:21:11.339Z,15.02
2023-07-19T05:22:42.935Z,18.00
2023-07-19T05:24:14.409Z,14.52
2023-07-19T05:25:46.659Z,12.43
2023-07-19T05:27:18.422Z,17.15
2023-07-19T05:28:50.218Z,20.42
2023-07-19T05:30:22.709Z,18.65
2023-07-19T05:31:54.183Z,13.32
2023-07-19T05:33:25.690Z,13.70
2023-07-19T05:34:57.292Z,11.40
2023-07-19T05:36:28.904Z,12.52
2023-07-19T05:38:00.766Z,16.02
2023-07-19T05:39:32.425Z,13.27
2023-07-19T05:41:04.068Z,13.82
2023-07-19T05:42:35.639Z,13.73
2023-07-19T05:44:11.698Z,19.38
2023-07-19T05:45:44.477Z,16.20
2023-07-19T05:47:16.064Z,18.67
2023-07-19T05:48:47.633Z,12.77
2023-07-19T05:50:20.191Z,15.30
2023-07-19T05:51:51.756Z,15.65
2023-07-19T05:53:23.204Z,17.15
2023-07-19T05:54:54.720Z,13.73
2023-07-19T05:56:26.197Z,12.30
2023-07-19T05:57:57.735Z,10.98
2023-07-19T05:59:30.065Z,12.30
2023-07-19T06:01:05.025Z,13.02
2023-07-19T06:02:52.770Z,10.88
2023-07-19T06:04:25.552Z,14.60
2023-07-19T06:05:57.075Z,18.15
2023-07-19T06:07:28.548Z,12.27
2023-07-19T06:09:02.303Z,14.82
2023-07-19T06:10:33.836Z,12.40
2023-07-19T06:12:05.495Z,18.73
2023-07-19T06:13:37.067Z,14.82
2023-07-19T06:15:08.847Z,14.38
2023-07-19T06:16:40.771Z,17.63
2023-07-19T06:18:12.409Z,15.18
2023-07-19T06:19:43.939Z,15.63
2023-07-19T06:21:15.676Z,14.60
2023-07-19T06:22:47.230Z,11.85
2023-07-19T06:24:18.777Z,14.13
2023-07-19T06:25:50.840Z,13.13
2023-07-19T06:27:22.556Z,12.52
2023-07-19T06:28:54.275Z,11.57
2023-07-19T06:30:25.752Z,18.23
2023-07-19T06:31:57.241Z,11.48
2023-07-19T06:33:31.766Z,16.35
2023-07-19T06:35:03.886Z,13.82
2023-07-19T06:36:35.368Z,14.43
2023-07-19T06:38:07.074Z,13.40
2023-07-19T06:39:38.870Z,11.82
2023-07-19T06:41:10.476Z,14.00
2023-07-19T06:42:43.954Z,12.95
2023-07-19T06:44:15.418Z,15.77
2023-07-19T06:45:47.275Z,10.98
2023-07-19T06:47:18.840Z,15.30
2023-07-19T06:48:50.453Z,13.55
2023-07-19T06:50:22.049Z,11.63
2023-07-19T06:51:53.853Z,13.43
2023-07-19T06:53:25.540Z,10.65
2023-07-19T06:54:57.368Z,10.88
2023-07-19T06:56:28.881Z,11.70
2023-07-19T06:58:00.384Z,9.38
2023-07-19T06:59:31.822Z,11.35
2023-07-19T07:01:03.425Z,12.63
2023-07-19T07:02:34.989Z,12.70
2023-07-19T07:04:08.741Z,11.75
2023-07-19T07:05:40.485Z,11.35
2023-07-19T07:07:12.915Z,11.50
2023-07-19T07:08:45.103Z,9.93
2023-07-19T07:10:19.411Z,12.40
2023-07-19T07:11:51.129Z,12.98
2023-07-19T07:13:22.818Z,11.27
2023-07-19T07:14:55.876Z,8.90
2023-07-19T07:16:29.604Z,13.27
2023-07-19T07:18:01.354Z,14.25
2023-07-19T07:19:33.231Z,18.13
2023-07-19T07:21:04.886Z,9.95
2023-07-19T07:22:36.620Z,14.95
2023-07-19T07:24:08.781Z,14.45
2023-07-19T07:25:41.195Z,15.40
2023-07-19T07:27:12.729Z,12.50
2023-07-19T07:28:45.278Z,9.40
2023-07-19T07:30:17.022Z,13.40
2023-07-19T07:31:48.518Z,12.02
2023-07-19T07:33:22.976Z,9.93
2023-07-19T07:34:54.476Z,11.57
2023-07-19T07:36:25.961Z,18.92
2023-07-19T07:37:57.421Z,9.25
2023-07-19T07:39:31.161Z,9.93
2023-07-19T07:41:03.536Z,10.27
2023-07-19T07:42:34.988Z,8.00
2023-07-19T07:44:06.509Z,14.00
2023-07-19T07:45:38.037Z,9.13
2023-07-19T07:47:09.836Z,8.73
2023-07-19T07:48:41.347Z,7.82
2023-07-19T07:50:12.954Z,9.30
2023-07-19T07:51:44.737Z,7.75
2023-07-19T07:53:16.602Z,8.25
2023-07-19T07:54:49.531Z,7.65
2023-07-19T07:56:21.495Z,11.40
2023-07-19T07:57:52.957Z,9.82
2023-07-19T07:59:24.527Z,7.38
2023-07-19T08:00:56.103Z,8.35
2023-07-19T08:02:27.617Z,8.73
2023-07-19T08:03:59.526Z,7.03
2023-07-19T08:05:33.944Z,6.47
2023-07-19T08:07:05.452Z,7.57
2023-07-19T08:08:37.018Z,9.32
2023-07-19T08:10:08.683Z,6.55
2023-07-19T08:11:40.200Z,8.45
2023-07-19T08:13:12.701Z,9.70
2023-07-19T08:14:47.179Z,8.95
2023-07-19T08:16:19.189Z,9.13
2023-07-19T08:17:51.094Z,5.75
2023-07-19T08:19:22.504Z,6.20
2023-07-19T08:20:55.356Z,7.55
2023-07-19T08:22:27.793Z,10.05
2023-07-19T08:23:59.215Z,5.35
2023-07-19T08:25:30.635Z,7.70
2023-07-19T08:27:02.042Z,5.72
2023-07-19T08:28:33.516Z,11.88
2023-07-19T08:30:08.303Z,6.88
2023-07-19T08:31:39.786Z,6.82
2023-07-19T08:33:11.487Z,6.47
2023-07-19T08:34:43.310Z,7.78
2023-07-19T08:36:14.838Z,7.85
2023-07-19T08:37:46.609Z,7.40
2023-07-19T08:39:18.124Z,8.00
2023-07-19T08:41:07.660Z,6.03
2023-07-19T08:42:39.976Z,8.45
2023-07-19T08:44:11.549Z,7.65
2023-07-19T08:45:43.083Z,8.65
2023-07-19T08:47:15.306Z,6.22
2023-07-19T08:48:48.331Z,4.60
2023-07-19T08:50:20.721Z,6.18
2023-07-19T08:51:52.754Z,4.78
2023-07-19T08:53:27.630Z,6.00
2023-07-19T08:54:59.410Z,5.70
2023-07-19T08:56:32.023Z,6.63
2023-07-19T08:58:03.602Z,10.30
2023-07-19T08:59:35.577Z,12.30
2023-07-19T09:01:08.597Z,6.78
2023-07-19T09:02:40.193Z,6.63
2023-07-19T09:04:11.734Z,6.40
2023-07-19T09:05:44.949Z,6.38
2023-07-19T09:07:16.382Z,6.13
2023-07-19T09:08:47.862Z,8.43
2023-07-19T09:10:19.683Z,5.28
2023-07-19T09:11:51.323Z,8.00
2023-07-19T09:13:23.082Z,6.75
2023-07-19T09:14:57.733Z,9.70
2023-07-19T09:16:30.344Z,7.65
2023-07-19T09:18:02.388Z,6.10
2023-07-19T09:19:37.126Z,7.57
2023-07-19T09:21:08.605Z,6.50
2023-07-19T09:22:40.407Z,10.13
2023-07-19T09:24:12.517Z,5.72
2023-07-19T09:25:53.519Z,7.15
2023-07-19T09:27:25.971Z,12.00
2023-07-19T09:28:57.372Z,7.80
2023-07-19T09:30:28.860Z,13.57
2023-07-19T09:32:01.352Z,6.18
2023-07-19T09:33:32.848Z,10.80
2023-07-19T09:35:05.020Z,7.25
2023-07-19T09:36:36.489Z,7.57
2023-07-19T09:38:07.954Z,6.03
2023-07-19T09:39:41.501Z,5.75
2023-07-19T09:41:13.469Z,5.03
2023-07-19T09:42:45.115Z,7.40
2023-07-19T09:44:17.814Z,5.47
2023-07-19T09:45:50.723Z,8.98
2023-07-19T09:47:29.591Z,7.85
2023-07-19T09:49:02.103Z,9.00
2023-07-19T09:50:33.695Z,6.97
2023-07-19T09:52:05.841Z,7.13
2023-07-19T09:53:38.502Z,6.97
2023-07-19T09:55:10.892Z,7.55
2023-07-19T09:56:43.636Z,5.70
2023-07-19T09:58:16.453Z,6.25
2023-07-19T09:59:49.328Z,9.20
2023-07-19T10:01:22.186Z,7.70
2023-07-19T10:02:53.724Z,9.90
2023-07-19T10:04:29.391Z,5.90
2023-07-19T10:06:00.903Z,10.00
2023-07-19T10:07:44.955Z,7.38
2023-07-19T10:09:24.140Z,7.00
2023-07-19T10:11:00.635Z,8.65
2023-07-19T10:12:33.167Z,9.75
2023-07-19T10:14:16.418Z,8.93
2023-07-19T10:15:56.720Z,9.82
2023-07-19T10:17:28.744Z,12.15
2023-07-19T10:19:13.016Z,10.00
2023-07-19T10:20:45.498Z,6.45
2023-07-19T10:22:17.026Z,7.53
2023-07-19T10:23:48.604Z,6.95
2023-07-19T10:25:24.111Z,10.20
2023-07-19T10:26:55.663Z,6.30
2023-07-19T10:28:31.439Z,7.13
2023-07-19T10:30:06.613Z,9.10
2023-07-19T10:31:38.112Z,8.45
2023-07-19T10:33:09.721Z,7.28
2023-07-19T10:34:45.841Z,7.00
2023-07-19T10:36:17.546Z,7.13
2023-07-19T10:37:52.808Z,11.60
2023-07-19T10:39:24.691Z,9.57
2023-07-19T10:40:57.406Z,8.48
2023-07-19T10:42:28.909Z,8.52
2023-07-19T10:44:04.062Z,8.48
2023-07-19T10:45:38.547Z,7.00
2023-07-19T10:47:14.129Z,9.43
2023-07-19T10:50:18.463Z,9.70
2023-07-19T10:51:56.653Z,15.73
2023-07-19T10:53:28.437Z,8.85
2023-07-19T10:55:10.309Z,8.05
2023-07-19T10:56:51.675Z,8.88
2023-07-19T10:58:23.283Z,7.22
2023-07-19T10:59:55.095Z,8.63
2023-07-19T11:01:30.186Z,7.80
2023-07-19T11:03:02.127Z,7.38
2023-07-19T11:04:36.315Z,11.50
2023-07-19T11:06:08.066Z,9.63
2023-07-19T11:07:39.704Z,9.63
2023-07-19T11:09:11.314Z,6.43
2023-07-19T11:10:42.799Z,5.75
2023-07-19T11:12:14.318Z,12.85
2023-07-19T11:13:47.084Z,6.20
2023-07-19T11:15:18.656Z,7.05
2023-07-19T11:16:50.677Z,6.70
2023-07-19T11:18:29.353Z,7.35
2023-07-19T11:20:00.913Z,9.48
2023-07-19T11:21:32.409Z,7.40
2023-07-19T11:23:08.996Z,12.50
2023-07-19T11:24:41.633Z,8.82
2023-07-19T11:26:13.628Z,8.95
2023-07-19T11:27:49.705Z,10.30
2023-07-19T11:29:21.758Z,8.73
2023-07-19T11:30:53.273Z,8.20
2023-07-19T11:32:25.005Z,6.68
2023-07-19T11:34:15.584Z,10.80
2023-07-19T11:35:51.900Z,8.88
2023-07-19T11:37:29.253Z,8.38
2023-07-19T11:39:03.049Z,11.30
2023-07-19T11:40:34.525Z,6.03
2023-07-19T11:42:06.286Z,11.60
2023-07-19T11:43:41.878Z,8.20
2023-07-19T11:45:14.822Z,6.53
2023-07-19T11:46:46.813Z,7.05
2023-07-19T11:48:18.398Z,9.18
2023-07-19T11:49:49.875Z,7.68
2023-07-19T11:51:21.739Z,7.72
2023-07-19T11:52:56.588Z,6.93
2023-07-19T11:54:29.052Z,8.43
2023-07-19T11:56:11.021Z,10.80
2023-07-19T11:57:43.657Z,6.70
2023-07-19T11:59:15.364Z,6.93
2023-07-19T12:00:46.898Z,7.68
2023-07-19T12:02:18.522Z,10.13
2023-07-19T12:03:50.122Z,9.20
2023-07-19T12:05:22.284Z,7.32
2023-07-19T12:06:53.746Z,7.55
2023-07-19T12:08:28.335Z,8.10
2023-07-19T12:10:03.735Z,10.10
2023-07-19T12:11:35.318Z,7.32
2023-07-19T12:13:06.848Z,8.30
2023-07-19T12:14:38.447Z,6.95
2023-07-19T12:16:10.120Z,10.02
2023-07-19T12:17:41.946Z,9.45
2023-07-19T12:19:14.919Z,7.53
2023-07-19T12:20:46.624Z,9.10
2023-07-19T12:22:18.514Z,7.88
2023-07-19T12:25:25.219Z,8.45
2023-07-19T12:26:56.900Z,14.27
2023-07-19T12:28:28.491Z,10.65
2023-07-19T12:30:03.706Z,7.88
2023-07-19T12:31:36.732Z,11.02
2023-07-19T12:33:08.829Z,7.50
2023-07-19T12:34:40.583Z,8.05
2023-07-19T12:36:11.994Z,10.63
2023-07-19T12:37:43.607Z,7.60
2023-07-19T12:39:17.794Z,8.68
2023-07-19T12:40:49.364Z,10.73
2023-07-19T12:42:21.140Z,9.77
2023-07-19T12:43:53.016Z,7.80
2023-07-19T12:45:24.798Z,7.18
2023-07-19T12:46:56.458Z,8.02
2023-07-19T12:48:33.233Z,6.63
2023-07-19T12:50:06.443Z,6.43
2023-07-19T12:51:38.313Z,8.75
2023-07-19T12:53:10.090Z,8.52
2023-07-19T12:54:41.910Z,7.72
2023-07-19T12:56:13.407Z,9.48
2023-07-19T12:57:44.962Z,9.23
2023-07-19T12:59:16.490Z,9.27
2023-07-19T13:00:48.016Z,9.13
2023-07-19T13:02:19.695Z,8.25
2023-07-19T13:03:51.596Z,8.40
2023-07-19T13:05:23.270Z,11.52
2023-07-19T13:06:59.063Z,8.50
2023-07-19T13:08:31.118Z,7.93
2023-07-19T13:10:02.655Z,7.60
2023-07-19T13:11:35.153Z,9.23
2023-07-19T13:13:06.752Z,9.30
2023-07-19T13:14:38.943Z,8.93
2023-07-19T13:16:10.557Z,7.15
2023-07-19T13:17:42.709Z,9.65
2023-07-19T13:19:14.727Z,7.35
2023-07-19T13:20:46.179Z,8.52
2023-07-19T13:22:18.191Z,9.45
2023-07-19T13:23:50.771Z,8.10
2023-07-19T13:25:23.409Z,6.68
2023-07-19T13:26:54.964Z,7.95
2023-07-19T13:28:26.610Z,8.48
2023-07-19T13:29:58.265Z,6.63
2023-07-19T13:31:29.826Z,9.07
2023-07-19T13:33:01.459Z,9.57
2023-07-19T13:34:32.950Z,8.55
2023-07-19T13:39:30.601Z,10.07
2023-07-19T13:41:02.281Z,9.43
2023-07-19T13:42:36.017Z,6.85
2023-07-19T13:44:08.078Z,6.47
2023-07-19T13:45:41.121Z,7.05
2023-07-19T13:47:12.588Z,6.25
2023-07-19T13:48:44.308Z,11.05
2023-07-19T13:50:15.846Z,6.63
2023-07-19T13:51:47.810Z,7.88
2023-07-19T13:53:19.775Z,7.80
2023-07-19T13:54:52.736Z,6.53
2023-07-19T13:56:24.753Z,9.05
